RAIN

Not for real navigation. The accuracy of this data is not assured See disclaimer for more information



ICAO NAME COUNTRY WIND Kt GUST Kt VIS m TEMP/DEW C BARO METAR
KJKL JACKSON CARROLL AIRPORT KY United States 0 0 800 21/21 30.03 KJKL 181226Z AUTO 00000KT 0.5SM -RA FG VV002 21/21 A3003 RMK AO2 P0003 T02110206
KBID Block Island, Block Island Sta RI United States 9 0 800 23/23 29.86 KBID 181211Z AUTO 23009KT 0.5SM -RA FG OVC003 23/23 A2986 RMK AO2 P0000
SAZA Azul Airport Argentina 2 0 800 11/11 29.97 SAZA 181222Z 27002KT 0800 FG -RA SCT020 OVC050 11/11 Q1015
K6L4 0 0 800 21/21 30.03 K6L4 181215Z AUTO 00000KT 0.5SM RA BKN021 OVC028 21/21 A3003 RMK AO2
KGLH GREENVILLE MUNICIPAL AIRPORT MS United States 10 0 1600 23/22 30.06 KGLH 181222Z 23010KT 1 0.5SM -TSRA BR BKN019 BKN060 23/22 A3006 RMK AO2 RAB22 TSB21 PRESRR P0008 T02

Show more